Time;durP1;ratioP1;P1;durP2;ratioP2;P2;SDS_P1;SDS_P2;PMS_P1;PMS_P2;Temp;Humidity;BMP_temperature;BMP_pressure;BME280_temperature;BME280_humidity;BME280_pressure;Samples;Min_cycle;Max_cycle;Signal;HPM_P1;HPM_P2
2021/06/05 00:00:10;;;;;;;;;;;29.50;90.30;;;;;;1940047;73;20155;-88
2021/06/05 00:02:40;;;;;;;;;;;29.50;90.20;;;;;;1932673;73;20236;-88
2021/06/05 00:05:10;;;;;;;;;;;29.50;90.20;;;;;;1925688;73;20168;-88
2021/06/05 00:07:40;;;;;;;;;;;29.50;90.10;;;;;;1937740;73;20217;-89
2021/06/05 00:10:11;;;;;;;;;;;29.50;90.00;;;;;;1932653;73;20211;-88
2021/06/05 00:12:44;;;;;;;;;;;29.50;90.00;;;;;;1931544;73;20157;-88
2021/06/05 00:15:16;;;;;;;;;;;29.60;89.40;;;;;;1939018;73;20200;-87
2021/06/05 00:17:46;;;;;;;;;;;29.60;89.60;;;;;;1936775;72;20221;-89
2021/06/05 00:20:15;;;;;;;;;;;29.70;89.70;;;;;;1929723;73;20236;-88
2021/06/05 00:22:45;;;;;;;;;;;29.70;89.70;;;;;;1937995;73;20255;-88
2021/06/05 00:25:16;;;;;;;;;;;29.80;89.70;;;;;;1934985;73;20484;-88
2021/06/05 00:27:46;;;;;;;;;;;29.90;89.70;;;;;;1941120;73;20296;-88
2021/06/05 00:30:16;;;;;;;;;;;29.90;89.20;;;;;;1927364;73;20205;-88
2021/06/05 00:32:46;;;;;;;;;;;30.00;88.10;;;;;;1934761;73;20236;-88
2021/06/05 00:35:17;;;;;;;;;;;30.00;87.80;;;;;;1934402;73;20176;-88
2021/06/05 00:37:47;;;;;;;;;;;30.10;88.00;;;;;;1931815;73;20126;-88
2021/06/05 00:40:17;;;;;;;;;;;30.10;87.90;;;;;;1943788;73;20284;-88
2021/06/05 00:42:47;;;;;;;;;;;30.20;87.10;;;;;;1934746;73;20108;-89
2021/06/05 00:45:18;;;;;;;;;;;30.20;87.00;;;;;;1936625;73;20244;-88
2021/06/05 00:47:48;;;;;;;;;;;30.20;86.90;;;;;;1938531;73;20243;-88
2021/06/05 00:50:19;;;;;;;;;;;30.30;86.90;;;;;;1931924;73;20189;-78
2021/06/05 00:52:50;;;;;;;;;;;30.40;86.90;;;;;;1937533;73;20234;-79
2021/06/05 00:55:21;;;;;;;;;;;30.40;86.60;;;;;;1881145;75;20186;-78
2021/06/05 00:57:51;;;;;;;;;;;30.50;86.50;;;;;;1884787;75;20541;-78
2021/06/05 01:00:23;;;;;;;;;;;30.50;86.10;;;;;;1884359;75;20217;-77
2021/06/05 01:02:52;;;;;;;;;;;30.60;86.20;;;;;;1848123;76;20215;-77
2021/06/05 01:05:23;;;;;;;;;;;30.70;85.70;;;;;;1936440;73;20171;-78
2021/06/05 01:07:53;;;;;;;;;;;30.70;85.30;;;;;;1933873;73;20173;-78
2021/06/05 01:10:24;;;;;;;;;;;30.80;85.50;;;;;;1883762;75;20173;-78
2021/06/05 01:12:56;;;;;;;;;;;30.80;85.40;;;;;;1878392;75;20439;-78
2021/06/05 01:15:33;;;;;;;;;;;30.80;85.10;;;;;;1882438;75;20637;-78
2021/06/05 01:18:06;;;;;;;;;;;30.90;84.80;;;;;;1924368;73;20618;-78
2021/06/05 01:20:40;;;;;;;;;;;30.90;84.60;;;;;;1934633;73;20174;-78
2021/06/05 01:23:12;;;;;;;;;;;30.90;83.80;;;;;;1926221;73;20167;-78
2021/06/05 01:25:43;;;;;;;;;;;31.00;84.40;;;;;;1932859;73;20394;-78
2021/06/05 01:28:26;;;;;;;;;;;31.00;84.10;;;;;;1936882;73;20239;-78
2021/06/05 01:30:56;;;;;;;;;;;31.00;83.90;;;;;;1927701;73;20446;-78
2021/06/05 01:33:28;;;;;;;;;;;31.10;83.70;;;;;;1927957;73;20224;-78
2021/06/05 01:35:59;;;;;;;;;;;31.20;83.10;;;;;;1935339;73;20150;-79
2021/06/05 01:38:30;;;;;;;;;;;31.20;83.10;;;;;;1938935;73;20240;-79
2021/06/05 01:41:01;;;;;;;;;;;31.20;83.00;;;;;;1939778;73;20216;-79
2021/06/05 01:43:32;;;;;;;;;;;31.30;83.10;;;;;;1923646;73;20559;-79
2021/06/05 01:46:02;;;;;;;;;;;31.30;83.00;;;;;;1935351;73;20226;-79
2021/06/05 01:48:32;;;;;;;;;;;31.30;82.90;;;;;;1888017;74;20467;-78
2021/06/05 01:51:04;;;;;;;;;;;31.30;82.70;;;;;;1890237;74;20177;-78
2021/06/05 01:53:36;;;;;;;;;;;31.30;82.60;;;;;;1877145;74;20169;-78
2021/06/05 01:56:08;;;;;;;;;;;31.40;82.60;;;;;;1893659;74;20248;-78
2021/06/05 01:58:39;;;;;;;;;;;31.40;81.80;;;;;;1895202;74;20244;-79
2021/06/05 02:01:12;;;;;;;;;;;31.50;82.00;;;;;;1891072;74;20195;-80
2021/06/05 02:03:41;;;;;;;;;;;31.60;82.00;;;;;;1890227;74;20526;-81
2021/06/05 02:06:14;;;;;;;;;;;31.70;81.60;;;;;;1889745;74;20172;-80
2021/06/05 02:08:50;;;;;;;;;;;31.90;81.50;;;;;;1892679;74;20196;-81
2021/06/05 02:11:21;;;;;;;;;;;32.00;80.50;;;;;;1885431;76;20496;-80
2021/06/05 02:13:52;;;;;;;;;;;32.00;79.50;;;;;;1889241;74;20205;-79
2021/06/05 02:16:23;;;;;;;;;;;32.00;79.80;;;;;;1883997;74;20262;-79
2021/06/05 02:18:56;;;;;;;;;;;32.00;79.80;;;;;;1891235;74;20216;-79
2021/06/05 02:21:27;;;;;;;;;;;32.00;80.10;;;;;;1889478;74;20234;-80
2021/06/05 02:23:58;;;;;;;;;;;31.90;79.70;;;;;;1885750;74;20214;-80
2021/06/05 02:26:28;;;;;;;;;;;31.90;80.00;;;;;;1887671;74;20192;-79
2021/06/05 02:29:00;;;;;;;;;;;31.90;80.10;;;;;;1884178;74;20204;-81
2021/06/05 02:31:31;;;;;;;;;;;31.90;81.10;;;;;;1891993;74;20213;-80
2021/06/05 02:34:01;;;;;;;;;;;31.80;80.40;;;;;;1887957;74;20218;-82
2021/06/05 02:36:31;;;;;;;;;;;31.90;80.60;;;;;;1882697;74;20479;-82
2021/06/05 02:39:01;;;;;;;;;;;31.90;79.90;;;;;;1885784;74;20488;-81
2021/06/05 02:41:31;;;;;;;;;;;31.90;79.90;;;;;;1881065;74;20196;-81
2021/06/05 02:44:02;;;;;;;;;;;31.90;80.00;;;;;;1886145;74;20512;-81
2021/06/05 02:46:33;;;;;;;;;;;32.00;80.50;;;;;;1882555;76;20201;-81
2021/06/05 02:49:04;;;;;;;;;;;32.00;79.70;;;;;;1848628;75;20233;-81
2021/06/05 02:51:35;;;;;;;;;;;32.00;79.80;;;;;;1834487;76;20260;-81
2021/06/05 02:54:06;;;;;;;;;;;32.00;79.30;;;;;;1872285;75;20207;-79
2021/06/05 02:56:36;;;;;;;;;;;32.00;79.80;;;;;;1883117;75;20222;-79
2021/06/05 02:59:06;;;;;;;;;;;32.00;79.70;;;;;;1889046;75;20219;-79
2021/06/05 03:01:36;;;;;;;;;;;32.00;79.60;;;;;;1835857;77;20233;-80
2021/06/05 03:04:06;;;;;;;;;;;32.10;79.70;;;;;;1836712;76;20442;-78
2021/06/05 03:06:36;;;;;;;;;;;32.20;80.00;;;;;;1835121;77;20229;-79
2021/06/05 03:09:06;;;;;;;;;;;32.30;79.60;;;;;;1919982;73;20185;-79
2021/06/05 03:11:36;;;;;;;;;;;32.40;79.40;;;;;;1922870;73;20169;-79
2021/06/05 03:14:06;;;;;;;;;;;32.50;79.00;;;;;;1925410;73;20495;-79
2021/06/05 03:16:36;;;;;;;;;;;32.70;78.10;;;;;;1941237;73;20514;-79
2021/06/05 03:19:06;;;;;;;;;;;32.70;78.00;;;;;;1940881;73;20226;-79
2021/06/05 03:21:36;;;;;;;;;;;32.80;78.20;;;;;;1937565;73;20202;-80
2021/06/05 03:24:07;;;;;;;;;;;32.90;77.10;;;;;;1944535;73;20161;-81
2021/06/05 03:26:37;;;;;;;;;;;33.00;77.30;;;;;;1939468;73;20151;-82
2021/06/05 03:29:07;;;;;;;;;;;33.10;76.30;;;;;;1931746;73;20218;-81
2021/06/05 03:31:38;;;;;;;;;;;33.20;76.20;;;;;;1934217;73;20228;-81
2021/06/05 03:34:08;;;;;;;;;;;33.20;74.90;;;;;;1942315;73;20167;-79
2021/06/05 03:36:38;;;;;;;;;;;33.30;73.80;;;;;;1939722;73;20260;-79
2021/06/05 03:39:08;;;;;;;;;;;33.30;74.70;;;;;;1943331;73;20529;-79
2021/06/05 03:41:40;;;;;;;;;;;33.30;74.00;;;;;;1927200;73;20206;-79
2021/06/05 03:44:10;;;;;;;;;;;33.30;74.30;;;;;;1933263;73;20157;-79
2021/06/05 03:46:40;;;;;;;;;;;33.40;74.40;;;;;;1932977;73;20187;-80
2021/06/05 03:49:10;;;;;;;;;;;33.40;75.00;;;;;;1942127;72;20161;-80
2021/06/05 03:51:40;;;;;;;;;;;33.40;73.90;;;;;;1955572;72;20256;-79
2021/06/05 03:54:10;;;;;;;;;;;33.50;73.50;;;;;;1954452;72;20188;-80
2021/06/05 03:56:40;;;;;;;;;;;33.50;73.60;;;;;;1951390;72;20176;-80
2021/06/05 03:59:11;;;;;;;;;;;33.60;74.70;;;;;;1944016;72;20201;-79
2021/06/05 04:01:41;;;;;;;;;;;33.70;73.70;;;;;;1943194;72;20215;-79
2021/06/05 04:04:11;;;;;;;;;;;33.70;73.10;;;;;;1939492;72;20161;-79
2021/06/05 04:06:41;;;;;;;;;;;33.70;73.00;;;;;;1943907;72;20481;-80
2021/06/05 04:09:11;;;;;;;;;;;33.70;72.90;;;;;;1907470;74;20163;-79
2021/06/05 04:11:41;;;;;;;;;;;33.70;73.40;;;;;;1887649;75;20159;-79
2021/06/05 04:14:12;;;;;;;;;;;33.60;72.20;;;;;;1872740;75;20464;-80
2021/06/05 04:16:45;;;;;;;;;;;33.70;72.10;;;;;;1885040;75;20250;-79
2021/06/05 04:19:15;;;;;;;;;;;33.80;71.90;;;;;;1887360;75;20151;-79
2021/06/05 04:21:46;;;;;;;;;;;33.90;72.30;;;;;;1873271;75;20206;-80
2021/06/05 04:24:16;;;;;;;;;;;34.00;70.10;;;;;;1916587;74;20222;-79
2021/06/05 04:26:46;;;;;;;;;;;34.00;69.10;;;;;;1915458;74;20652;-79
2021/06/05 04:29:16;;;;;;;;;;;34.00;68.50;;;;;;1911759;74;20218;-80
2021/06/05 04:31:46;;;;;;;;;;;34.00;68.70;;;;;;1916017;74;20204;-81
2021/06/05 04:34:16;;;;;;;;;;;34.10;69.70;;;;;;1909990;74;20233;-78
2021/06/05 04:36:46;;;;;;;;;;;34.00;69.60;;;;;;1907744;74;20234;-81
2021/06/05 04:39:16;;;;;;;;;;;34.00;68.80;;;;;;1885065;75;20186;-81
2021/06/05 04:41:46;;;;;;;;;;;34.00;70.10;;;;;;1892784;75;20351;-81
2021/06/05 04:44:16;;;;;;;;;;;34.10;69.60;;;;;;1908791;74;20160;-79
2021/06/05 04:46:47;;;;;;;;;;;34.20;67.30;;;;;;1907385;74;20226;-79
2021/06/05 04:49:17;;;;;;;;;;;34.30;67.70;;;;;;1875243;75;20218;-80
2021/06/05 04:51:47;;;;;;;;;;;34.30;67.60;;;;;;1915688;74;20207;-79
2021/06/05 04:54:17;;;;;;;;;;;34.30;68.10;;;;;;1914055;74;20210;-79
2021/06/05 04:56:50;;;;;;;;;;;34.20;67.50;;;;;;1918328;74;20207;-78
2021/06/05 04:59:21;;;;;;;;;;;34.10;67.90;;;;;;1893470;75;20269;-79
2021/06/05 05:01:52;;;;;;;;;;;34.00;68.80;;;;;;1963252;72;20147;-80
2021/06/05 05:04:22;;;;;;;;;;;34.00;69.10;;;;;;1958900;72;20213;-79
2021/06/05 05:06:55;;;;;;;;;;;34.00;70.30;;;;;;1956425;72;20485;-80
2021/06/05 05:09:33;;;;;;;;;;;33.90;70.50;;;;;;1953931;72;20455;-80
2021/06/05 05:12:03;;;;;;;;;;;33.90;71.10;;;;;;1956377;72;20228;-79
2021/06/05 05:14:34;;;;;;;;;;;33.80;71.00;;;;;;1953020;72;20263;-78
2021/06/05 05:17:04;;;;;;;;;;;33.80;71.10;;;;;;1950094;72;20230;-80
2021/06/05 05:19:36;;;;;;;;;;;33.70;71.30;;;;;;1952874;72;20206;-79
2021/06/05 05:22:06;;;;;;;;;;;33.70;71.60;;;;;;1908615;74;20246;-79
2021/06/05 05:24:37;;;;;;;;;;;33.60;71.60;;;;;;1883081;75;20120;-78
2021/06/05 05:27:07;;;;;;;;;;;33.60;72.90;;;;;;1876391;75;20703;-79
2021/06/05 05:29:37;;;;;;;;;;;33.60;73.90;;;;;;1873386;75;20327;-77
2021/06/05 05:32:08;;;;;;;;;;;33.60;74.80;;;;;;1904581;74;20160;-77
2021/06/05 05:34:38;;;;;;;;;;;33.50;74.30;;;;;;1914575;74;20217;-76
2021/06/05 05:37:08;;;;;;;;;;;33.40;77.80;;;;;;1903854;74;20223;-76
2021/06/05 05:39:38;;;;;;;;;;;33.20;77.60;;;;;;1908760;74;20282;-76
2021/06/05 05:42:09;;;;;;;;;;;33.10;79.30;;;;;;1907653;74;20213;-77
2021/06/05 05:44:39;;;;;;;;;;;32.90;81.00;;;;;;1910702;74;20192;-76
2021/06/05 05:47:09;;;;;;;;;;;32.70;83.30;;;;;;1881583;75;20161;-78
2021/06/05 05:49:38;;;;;;;;;;;32.50;84.60;;;;;;1906088;74;20326;-76
2021/06/05 05:52:09;;;;;;;;;;;32.30;85.30;;;;;;1885668;74;20773;-76
2021/06/05 05:54:39;;;;;;;;;;;32.20;86.40;;;;;;1897507;74;20196;-76
2021/06/05 05:57:08;;;;;;;;;;;32.00;85.80;;;;;;1887360;74;20192;-77
2021/06/05 05:59:38;;;;;;;;;;;31.70;90.70;;;;;;1893362;74;20199;-76
2021/06/05 06:02:09;;;;;;;;;;;31.30;89.20;;;;;;1883890;75;20215;-76
2021/06/05 06:04:40;;;;;;;;;;;30.90;83.80;;;;;;1859714;76;20216;-77
2021/06/05 06:07:10;;;;;;;;;;;30.50;80.40;;;;;;1931689;73;20596;-77
2021/06/05 06:09:39;;;;;;;;;;;30.10;82.00;;;;;;1932666;73;20400;-76
2021/06/05 06:12:10;;;;;;;;;;;29.80;84.10;;;;;;1940288;73;20185;-78
2021/06/05 06:14:40;;;;;;;;;;;29.40;84.40;;;;;;1938405;73;20248;-77
2021/06/05 06:17:10;;;;;;;;;;;29.10;85.40;;;;;;1944553;73;20210;-76
2021/06/05 06:19:40;;;;;;;;;;;28.90;87.00;;;;;;1945262;73;20244;-77
2021/06/05 06:22:10;;;;;;;;;;;28.80;87.50;;;;;;1938574;73;20129;-76
2021/06/05 06:24:40;;;;;;;;;;;28.80;87.90;;;;;;1935571;73;20250;-75
2021/06/05 06:27:11;;;;;;;;;;;28.80;88.40;;;;;;1942766;73;20255;-76
2021/06/05 06:29:41;;;;;;;;;;;28.90;89.50;;;;;;1927925;73;20199;-76
2021/06/05 06:32:11;;;;;;;;;;;28.90;89.20;;;;;;1917103;73;20214;-76
2021/06/05 06:34:41;;;;;;;;;;;29.00;89.00;;;;;;1921080;73;20134;-77
2021/06/05 06:37:11;;;;;;;;;;;29.10;88.10;;;;;;1941914;73;20118;-76
2021/06/05 06:39:41;;;;;;;;;;;29.10;87.90;;;;;;1943024;72;20131;-77
2021/06/05 06:42:11;;;;;;;;;;;29.20;88.60;;;;;;1944095;73;20179;-77
2021/06/05 06:44:41;;;;;;;;;;;29.40;88.10;;;;;;1941195;72;20686;-76
2021/06/05 06:47:57;;;;;;;;;;;29.50;90.20;;;;;;1932421;73;20787;-76
2021/06/05 06:49:56;;;;;;;;;;;29.60;90.50;;;;;;1922932;73;20182;-75
2021/06/05 06:52:47;;;;;;;;;;;29.60;90.50;;;;;;1897116;74;20144;-77
2021/06/05 06:55:39;;;;;;;;;;;;;;;;;;;;;
2021/06/05 06:58:04;;;;;;;;;;;29.70;90.40;;;;;;1892224;74;20125;-76
2021/06/05 07:00:40;;;;;;;;;;;29.80;90.30;;;;;;1893592;74;20189;-76
2021/06/05 07:03:11;;;;;;;;;;;29.80;89.80;;;;;;1894395;74;20209;-77
2021/06/05 07:05:42;;;;;;;;;;;29.80;89.60;;;;;;1893800;74;20118;-74
2021/06/05 07:08:13;;;;;;;;;;;29.80;88.50;;;;;;1885253;74;20162;-76
2021/06/05 07:10:50;;;;;;;;;;;29.80;89.40;;;;;;1870405;75;20229;-76
2021/06/05 07:13:33;;;;;;;;;;;29.80;88.60;;;;;;1851308;76;20681;-77
2021/06/05 07:16:19;;;;;;;;;;;29.90;89.10;;;;;;1885781;74;20500;-76
2021/06/05 07:18:56;;;;;;;;;;;29.90;88.80;;;;;;1897608;74;20276;-76
2021/06/05 07:21:30;;;;;;;;;;;29.90;87.80;;;;;;1889114;75;20162;-75
2021/06/05 07:24:05;;;;;;;;;;;29.90;88.00;;;;;;1894329;74;20198;-77
2021/06/05 07:26:40;;;;;;;;;;;29.90;88.20;;;;;;1890827;75;20475;-77
2021/06/05 07:29:23;;;;;;;;;;;29.90;88.20;;;;;;1883466;74;20218;-77
2021/06/05 07:31:51;;;;;;;;;;;29.90;88.10;;;;;;1900867;75;20515;-76
2021/06/05 07:34:30;;;;;;;;;;;30.00;89.30;;;;;;1895232;75;20160;-76
2021/06/05 07:37:09;;;;;;;;;;;30.00;88.90;;;;;;1894627;74;20220;-77
2021/06/05 07:39:54;;;;;;;;;;;30.00;87.00;;;;;;1884949;74;20200;-76
2021/06/05 07:42:43;;;;;;;;;;;30.00;87.00;;;;;;1886522;74;20194;-77
2021/06/05 07:45:13;;;;;;;;;;;30.00;86.70;;;;;;1897301;74;20181;-76
2021/06/05 07:48:03;;;;;;;;;;;30.10;87.00;;;;;;1895615;74;20258;-76
2021/06/05 07:50:30;;;;;;;;;;;30.10;87.40;;;;;;1850504;75;20388;-75
2021/06/05 07:53:04;;;;;;;;;;;30.20;87.40;;;;;;1883271;75;20193;-76
2021/06/05 07:55:44;;;;;;;;;;;30.30;87.80;;;;;;1895882;74;20218;-75
2021/06/05 07:58:12;;;;;;;;;;;30.30;87.70;;;;;;1894355;74;20167;-75
2021/06/05 08:00:48;;;;;;;;;;;30.30;87.40;;;;;;1900813;74;20220;-76
2021/06/05 08:03:22;;;;;;;;;;;30.40;86.90;;;;;;1901297;74;20252;-77
2021/06/05 08:05:53;;;;;;;;;;;30.40;86.80;;;;;;1899613;74;20235;-77
2021/06/05 08:08:24;;;;;;;;;;;30.50;88.40;;;;;;1902078;74;20189;-77
2021/06/05 08:11:02;;;;;;;;;;;30.40;87.80;;;;;;1903087;74;21043;-77
2021/06/05 08:13:31;;;;;;;;;;;30.50;87.70;;;;;;1897090;74;20231;-76
2021/06/05 08:16:04;;;;;;;;;;;30.50;87.80;;;;;;1900223;74;20204;-78
2021/06/05 08:18:38;;;;;;;;;;;30.50;89.70;;;;;;1909082;74;20261;-76
2021/06/05 08:21:12;;;;;;;;;;;30.40;81.80;;;;;;1900720;74;20222;-79
2021/06/05 08:23:41;;;;;;;;;;;30.30;82.40;;;;;;1900193;74;20426;-77
2021/06/05 08:26:13;;;;;;;;;;;30.20;80.30;;;;;;1899591;74;20246;-78
2021/06/05 08:28:49;;;;;;;;;;;30.10;79.00;;;;;;1902786;74;20456;-77
2021/06/05 08:31:22;;;;;;;;;;;30.00;80.40;;;;;;1896002;74;20214;-78
2021/06/05 08:34:06;;;;;;;;;;;29.90;79.80;;;;;;1902211;74;20494;-76
2021/06/05 08:36:40;;;;;;;;;;;29.90;81.50;;;;;;1900333;74;20268;-77
2021/06/05 08:39:13;;;;;;;;;;;29.90;81.50;;;;;;1895065;74;20225;-77
2021/06/05 08:41:45;;;;;;;;;;;29.90;80.90;;;;;;1894557;74;20230;-78
2021/06/05 08:44:17;;;;;;;;;;;29.90;81.40;;;;;;1905332;74;20173;-77
2021/06/05 08:46:51;;;;;;;;;;;30.00;80.20;;;;;;1898428;74;20498;-76
2021/06/05 08:49:26;;;;;;;;;;;30.00;78.70;;;;;;1895321;74;20171;-78
2021/06/05 08:52:44;;;;;;;;;;;30.00;78.40;;;;;;1898489;74;20201;-77
2021/06/05 08:54:53;;;;;;;;;;;30.10;78.30;;;;;;1886178;74;20221;-77
2021/06/05 08:57:28;;;;;;;;;;;30.10;77.90;;;;;;1905836;74;20450;-77
2021/06/05 08:59:59;;;;;;;;;;;30.20;79.30;;;;;;1909632;74;20311;-76
2021/06/05 09:02:30;;;;;;;;;;;30.30;80.10;;;;;;1895399;74;20478;-76
2021/06/05 09:05:03;;;;;;;;;;;30.30;81.80;;;;;;1894051;74;20218;-77
2021/06/05 09:07:33;;;;;;;;;;;30.40;83.10;;;;;;1917382;74;20246;-77
2021/06/05 09:10:04;;;;;;;;;;;30.50;83.80;;;;;;1909552;74;20237;-78
2021/06/05 09:12:35;;;;;;;;;;;30.60;82.90;;;;;;1898184;74;20226;-78
2021/06/05 09:15:06;;;;;;;;;;;30.70;81.90;;;;;;1905045;74;20253;-80
2021/06/05 09:17:38;;;;;;;;;;;30.80;81.20;;;;;;1862177;75;20147;-78
2021/06/05 09:20:09;;;;;;;;;;;30.90;81.40;;;;;;1826538;77;20536;-76
2021/06/05 09:22:40;;;;;;;;;;;31.00;78.80;;;;;;1846543;77;20209;-76
2021/06/05 09:25:11;;;;;;;;;;;30.90;78.20;;;;;;1848009;76;20221;-78
2021/06/05 09:27:41;;;;;;;;;;;30.90;79.10;;;;;;1830215;76;20419;-77
2021/06/05 09:30:12;;;;;;;;;;;30.90;79.80;;;;;;1864683;75;20169;-76
2021/06/05 09:32:43;;;;;;;;;;;30.90;79.60;;;;;;1827008;77;20363;-76
2021/06/05 09:35:14;;;;;;;;;;;30.90;79.70;;;;;;1864538;75;20181;-76
2021/06/05 09:37:46;;;;;;;;;;;30.90;78.70;;;;;;1853428;77;20200;-76
2021/06/05 09:40:17;;;;;;;;;;;30.80;78.30;;;;;;1860302;75;20224;-77
2021/06/05 09:42:48;;;;;;;;;;;30.80;79.00;;;;;;1829992;76;20144;-78
2021/06/05 09:45:19;;;;;;;;;;;30.80;78.80;;;;;;1815461;77;20210;-76
2021/06/05 09:47:50;;;;;;;;;;;30.70;79.10;;;;;;1834451;77;20166;-75
2021/06/05 09:50:21;;;;;;;;;;;30.70;79.40;;;;;;1858675;75;20528;-77
2021/06/05 09:52:52;;;;;;;;;;;30.70;79.30;;;;;;1859316;75;20142;-76
2021/06/05 09:55:21;;;;;;;;;;;30.70;80.10;;;;;;1854512;77;20468;-77
2021/06/05 09:57:52;;;;;;;;;;;30.60;80.20;;;;;;1902179;74;20206;-77
2021/06/05 10:00:24;;;;;;;;;;;30.60;81.10;;;;;;1903082;74;20131;-76
2021/06/05 10:02:55;;;;;;;;;;;30.50;80.90;;;;;;1902370;74;20203;-77
2021/06/05 10:05:29;;;;;;;;;;;30.50;81.60;;;;;;1902385;74;20268;-75
2021/06/05 10:08:00;;;;;;;;;;;30.50;81.60;;;;;;1904345;74;20155;-77
2021/06/05 10:10:32;;;;;;;;;;;30.50;81.80;;;;;;1908762;75;20265;-76
2021/06/05 10:13:03;;;;;;;;;;;30.50;81.80;;;;;;1900177;74;20191;-76
2021/06/05 10:15:34;;;;;;;;;;;30.50;82.70;;;;;;1900672;74;20485;-76
2021/06/05 10:18:06;;;;;;;;;;;30.50;83.50;;;;;;1903457;74;20193;-77
2021/06/05 10:20:38;;;;;;;;;;;30.40;85.10;;;;;;1907244;74;20458;-77
2021/06/05 10:23:09;;;;;;;;;;;30.40;84.80;;;;;;1833250;77;20148;-75
2021/06/05 10:25:40;;;;;;;;;;;30.30;84.00;;;;;;1875568;75;20129;-77
2021/06/05 10:28:11;;;;;;;;;;;30.30;83.90;;;;;;1836703;77;20199;-77
2021/06/05 10:30:42;;;;;;;;;;;30.30;84.30;;;;;;1873121;75;20172;-78
2021/06/05 10:33:14;;;;;;;;;;;30.30;84.30;;;;;;1838941;77;20165;-78
2021/06/05 10:35:45;;;;;;;;;;;30.30;84.40;;;;;;1871494;75;20129;-79
2021/06/05 10:38:16;;;;;;;;;;;30.30;83.30;;;;;;1911193;74;20199;-79
2021/06/05 10:40:47;;;;;;;;;;;30.30;84.20;;;;;;1910097;74;20201;-79
2021/06/05 10:43:17;;;;;;;;;;;30.30;84.30;;;;;;1905150;74;20163;-79
2021/06/05 10:45:48;;;;;;;;;;;30.30;84.00;;;;;;1918683;74;20887;-78
2021/06/05 10:48:20;;;;;;;;;;;30.20;84.10;;;;;;1913790;74;20202;-77
2021/06/05 10:50:51;;;;;;;;;;;30.20;84.60;;;;;;1899601;74;20179;-80
2021/06/05 10:53:25;;;;;;;;;;;30.10;84.10;;;;;;1913050;74;20230;-78
2021/06/05 10:56:01;;;;;;;;;;;30.10;84.30;;;;;;1869488;75;20250;-78
2021/06/05 10:58:31;;;;;;;;;;;30.10;84.50;;;;;;1878835;75;20200;-78
2021/06/05 11:01:05;;;;;;;;;;;30.00;84.70;;;;;;1865212;75;20420;-78
2021/06/05 11:03:37;;;;;;;;;;;30.00;85.00;;;;;;1872296;75;20248;-79
2021/06/05 11:06:09;;;;;;;;;;;30.00;84.40;;;;;;1876188;76;20253;-78
2021/06/05 11:08:39;;;;;;;;;;;30.00;85.20;;;;;;1857664;76;20210;-78
2021/06/05 11:11:09;;;;;;;;;;;30.10;84.50;;;;;;1855514;77;20444;-79
2021/06/05 11:13:41;;;;;;;;;;;30.10;84.40;;;;;;1863875;76;20204;-78
2021/06/05 11:16:12;;;;;;;;;;;30.10;84.90;;;;;;1875722;76;20280;-78
2021/06/05 11:18:43;;;;;;;;;;;30.20;84.50;;;;;;1866099;76;20256;-78
2021/06/05 11:21:15;;;;;;;;;;;30.20;84.10;;;;;;1869925;77;20188;-79
2021/06/05 11:23:45;;;;;;;;;;;30.30;83.50;;;;;;1873281;76;20222;-78
2021/06/05 11:26:17;;;;;;;;;;;30.30;83.40;;;;;;1867131;75;20148;-78
2021/06/05 11:28:49;;;;;;;;;;;30.30;83.60;;;;;;1867566;75;20160;-79
2021/06/05 11:31:20;;;;;;;;;;;30.30;83.30;;;;;;1883521;75;20205;-79
2021/06/05 11:33:50;;;;;;;;;;;30.30;83.40;;;;;;1872360;76;20195;-78
2021/06/05 11:36:23;;;;;;;;;;;30.30;83.30;;;;;;1876009;75;20199;-79
2021/06/05 11:38:53;;;;;;;;;;;30.30;83.10;;;;;;1862073;76;20248;-78
2021/06/05 11:41:24;;;;;;;;;;;30.30;82.70;;;;;;1863672;76;20159;-78
2021/06/05 11:43:55;;;;;;;;;;;30.30;82.50;;;;;;1869486;74;20195;-78
2021/06/05 11:46:25;;;;;;;;;;;30.20;82.50;;;;;;1870447;76;20194;-79
2021/06/05 11:49:00;;;;;;;;;;;30.20;82.90;;;;;;1856356;76;20181;-78
2021/06/05 11:51:28;;;;;;;;;;;30.10;82.90;;;;;;1871365;76;20136;-88
2021/06/05 11:54:00;;;;;;;;;;;30.10;83.00;;;;;;1874931;76;20195;-88
2021/06/05 11:56:34;;;;;;;;;;;30.00;83.00;;;;;;1886076;74;20161;-88
2021/06/05 11:59:06;;;;;;;;;;;30.00;82.70;;;;;;1846377;76;20184;-88
2021/06/05 12:01:36;;;;;;;;;;;30.00;83.00;;;;;;1823304;77;20172;-88
2021/06/05 12:04:08;;;;;;;;;;;29.90;83.10;;;;;;1823090;77;20137;-88
2021/06/05 12:06:39;;;;;;;;;;;29.90;83.20;;;;;;1816576;78;20212;-89
2021/06/05 12:09:11;;;;;;;;;;;29.90;83.20;;;;;;1821331;78;20464;-90
2021/06/05 12:11:44;;;;;;;;;;;29.90;84.60;;;;;;1851918;77;20182;-90
2021/06/05 12:14:15;;;;;;;;;;;29.80;83.70;;;;;;1856012;77;20217;-90
2021/06/05 12:16:47;;;;;;;;;;;29.80;83.40;;;;;;1858155;77;20268;-89
2021/06/05 12:19:17;;;;;;;;;;;29.80;83.60;;;;;;1860095;77;20742;-89
2021/06/05 12:21:47;;;;;;;;;;;29.70;83.20;;;;;;1842235;77;20204;-90
2021/06/05 12:24:18;;;;;;;;;;;29.70;83.40;;;;;;1844102;77;20242;-88
2021/06/05 12:26:49;;;;;;;;;;;29.70;83.30;;;;;;1855498;77;20159;-87
2021/06/05 12:29:24;;;;;;;;;;;29.70;83.40;;;;;;1859718;77;20229;-88
2021/06/05 12:31:57;;;;;;;;;;;29.70;83.70;;;;;;1850249;77;20191;-89
2021/06/05 12:34:29;;;;;;;;;;;29.60;83.50;;;;;;1842075;77;20218;-89
2021/06/05 12:37:01;;;;;;;;;;;29.70;84.00;;;;;;1892711;75;20171;-88
2021/06/05 12:39:31;;;;;;;;;;;29.60;84.00;;;;;;1936198;74;20172;-89
2021/06/05 12:42:01;;;;;;;;;;;29.60;84.20;;;;;;1932582;74;20168;-89
2021/06/05 12:44:32;;;;;;;;;;;29.60;84.50;;;;;;1933217;74;20125;-89
2021/06/05 12:47:08;;;;;;;;;;;29.60;85.20;;;;;;1932289;74;20213;-89
2021/06/05 12:49:37;;;;;;;;;;;29.50;85.10;;;;;;1926740;74;20129;-89
2021/06/05 12:52:08;;;;;;;;;;;29.50;85.10;;;;;;1936386;74;20399;-89
2021/06/05 12:54:39;;;;;;;;;;;29.50;84.80;;;;;;1924384;74;20162;-88
2021/06/05 12:57:13;;;;;;;;;;;29.50;84.80;;;;;;1914939;75;20237;-89
2021/06/05 12:59:43;;;;;;;;;;;29.40;85.00;;;;;;1915712;74;20204;-89
2021/06/05 13:02:14;;;;;;;;;;;29.40;85.10;;;;;;1936411;74;20164;-88
2021/06/05 13:04:45;;;;;;;;;;;29.40;85.20;;;;;;1946322;74;20188;-88
2021/06/05 13:07:15;;;;;;;;;;;29.40;85.60;;;;;;1943581;74;20240;-88
2021/06/05 13:09:46;;;;;;;;;;;29.30;85.30;;;;;;1915015;75;20198;-89
2021/06/05 13:12:17;;;;;;;;;;;29.30;85.60;;;;;;1914814;74;20154;-89
2021/06/05 13:14:48;;;;;;;;;;;29.30;85.70;;;;;;1910897;74;20214;-89
2021/06/05 13:17:18;;;;;;;;;;;29.30;86.20;;;;;;1899136;74;20259;-89
2021/06/05 13:19:48;;;;;;;;;;;29.20;86.80;;;;;;1917507;74;20122;-89
2021/06/05 13:22:19;;;;;;;;;;;29.20;86.70;;;;;;1908063;74;20129;-89
2021/06/05 13:24:51;;;;;;;;;;;29.20;86.30;;;;;;1917977;74;20209;-88
2021/06/05 13:27:24;;;;;;;;;;;29.20;86.20;;;;;;1879077;76;20231;-88
2021/06/05 13:29:54;;;;;;;;;;;29.20;85.90;;;;;;1890875;76;20125;-88
2021/06/05 13:32:25;;;;;;;;;;;29.10;86.60;;;;;;1845721;77;20144;-87
2021/06/05 13:34:55;;;;;;;;;;;29.10;87.50;;;;;;1869289;76;20231;-88
2021/06/05 13:37:26;;;;;;;;;;;29.10;87.40;;;;;;1882150;76;20201;-88
2021/06/05 13:39:57;;;;;;;;;;;29.10;87.10;;;;;;1859295;76;20195;-88
2021/06/05 13:42:28;;;;;;;;;;;29.10;87.50;;;;;;1853534;77;20221;-88
2021/06/05 13:44:59;;;;;;;;;;;29.10;87.50;;;;;;1871045;76;20205;-88
2021/06/05 13:47:29;;;;;;;;;;;29.10;87.20;;;;;;1859302;76;20144;-88
2021/06/05 13:49:59;;;;;;;;;;;29.10;87.70;;;;;;1859129;77;20260;-88
2021/06/05 13:52:33;;;;;;;;;;;29.00;87.20;;;;;;1859237;76;20169;-88
2021/06/05 13:55:04;;;;;;;;;;;29.00;87.80;;;;;;1860691;76;20135;-89
2021/06/05 14:00:29;;;;;;;;;;;29.00;87.60;;;;;;1871904;77;20512;-88
2021/06/05 14:02:58;;;;;;;;;;;29.00;88.20;;;;;;1859056;77;20181;-87
2021/06/05 14:05:28;;;;;;;;;;;28.90;87.80;;;;;;1871422;76;20169;-89
2021/06/05 14:07:59;;;;;;;;;;;28.90;88.60;;;;;;1855106;76;20148;-88
2021/06/05 14:10:29;;;;;;;;;;;29.00;89.20;;;;;;1881289;76;20116;-88
2021/06/05 14:12:59;;;;;;;;;;;28.90;88.90;;;;;;1877843;76;20287;-88
2021/06/05 14:15:30;;;;;;;;;;;28.90;88.90;;;;;;1871121;77;20169;-89
2021/06/05 14:18:01;;;;;;;;;;;28.90;88.80;;;;;;1872189;77;20229;-88
2021/06/05 14:20:32;;;;;;;;;;;28.90;88.30;;;;;;1872077;77;20216;-88
2021/06/05 14:23:03;;;;;;;;;;;28.90;88.70;;;;;;1871662;77;20333;-88
2021/06/05 14:25:33;;;;;;;;;;;28.90;88.80;;;;;;1872317;76;20138;-87
2021/06/05 14:28:04;;;;;;;;;;;28.90;88.90;;;;;;1872019;77;20161;-89
2021/06/05 14:30:35;;;;;;;;;;;28.80;88.40;;;;;;1876939;76;20456;-88
2021/06/05 14:33:05;;;;;;;;;;;28.90;88.80;;;;;;1871865;77;20134;-88
2021/06/05 14:35:36;;;;;;;;;;;28.80;88.30;;;;;;1879621;76;20152;-89
2021/06/05 14:38:07;;;;;;;;;;;28.80;88.70;;;;;;1871593;76;20897;-88
2021/06/05 14:40:37;;;;;;;;;;;28.80;89.40;;;;;;1860364;77;20237;-88
2021/06/05 14:43:08;;;;;;;;;;;28.80;89.40;;;;;;1841513;77;20140;-88
2021/06/05 14:45:39;;;;;;;;;;;28.80;89.10;;;;;;1816179;78;20187;-88